Flight Track Log - Related Links

Times and Time Zones

All times are in EDT time to prevent confusion due to time zone crossing. See the N960DL flight status page for this flight to view local times or setup timezone preferences in your user account.

Time Position Orientation Groundspeed Altitude Reporting Facility
EDT Latitude Longitude Course Direction KTS MPH feet Rate Location/Type
Sun 10:25:27 AM 41.3108 -95.9094 66° East 140 161 1,500  Level Minneapolis Center
Sun 10:26:21 AM 41.3531 -95.9156 354° North 184 212 3,300 1,576 Climbing Minneapolis Center
Sun 10:27:06 AM 41.3903 -95.9067 10° North 211 243 4,100 1,907 Climbing Minneapolis Center
Sun 10:28:00 AM 41.5402 -95.5851 42° Northeast  Level FlightAware Approximate
Sun 10:28:08 AM 41.4453 -95.8464 39° Northeast 241 277 6,700  Level Minneapolis Center
Sun 10:29:00 AM 41.6257 -95.4910 37° Northeast  Level FlightAware Approximate
Sun 10:29:09 AM 41.5075 -95.7633 45° Northeast 255 293 9,700  Level Minneapolis Center
Sun 10:30:00 AM 41.6992 -95.3858 66° East  Level FlightAware Approximate
Sun 10:30:11 AM 41.5636 -95.6872 45° Northeast 270 311 11,100  Level Minneapolis Center
Sun 10:31:24 AM 41.6361 -95.5944 44° Northeast 326 375 12,200 1,778 Climbing Minneapolis Center
Sun 10:32:26 AM 41.7297 -95.4728 44° Northeast 378 435 15,100 2,565 Climbing Minneapolis Center
Sun 10:33:28 AM 41.8103 -95.3672 44° Northeast 400 460 17,500 2,049 Climbing Minneapolis Center
Sun 10:34:29 AM 41.8925 -95.2592 44° Northeast 412 474 19,300 1,659 Climbing Minneapolis Center
Sun 10:35:31 AM 41.9772 -95.1461 45° Northeast 425 489 20,900 1,659 Climbing Minneapolis Center
Sun 10:36:32 AM 42.0669 -95.0275 44° Northeast 447 514 22,700 2,000 Climbing Minneapolis Center
Sun 10:37:34 AM 42.1742 -94.8819 45° Northeast 456 525 25,000 1,902 Climbing Minneapolis Center
Sun 10:38:35 AM 42.2456 -94.7861 45° Northeast 455 524 26,600 1,171 Climbing Minneapolis Center
Sun 10:39:37 AM 42.3525 -94.6417 45° Northeast 454 522 27,400 919 Climbing Minneapolis Center
Sun 10:40:39 AM 42.4456 -94.5142 45° Northeast 472 543 28,500 780 Climbing Minneapolis Center
Sun 10:41:40 AM 42.5311 -94.3967 45° Northeast 464 534 29,000 244 Climbing Minneapolis Center
Sun 10:42:42 AM 42.6200 -94.2772 45° Northeast 455 524 29,000  Level Minneapolis Center
Sun 10:43:43 AM 42.7411 -94.1469 38° Northeast 464 534 29,000  Level Minneapolis Center
Sun 10:44:45 AM 42.8386 -94.0394 39° Northeast 459 528 29,000  Level Minneapolis Center
Sun 10:45:47 AM 42.9372 -93.9294 39° Northeast 459 528 29,000  Level Minneapolis Center
Sun 10:46:48 AM 43.0367 -93.8228 38° Northeast 458 527 29,000 -341 Level Minneapolis Center
Sun 10:47:50 AM 43.1336 -93.7142 39° Northeast 454 522 28,300 -1,024 Descending Minneapolis Center
Sun 10:48:51 AM 43.2347 -93.6383 29° Northeast 426 490 26,900 -1,122 Descending Minneapolis Center
Sun 10:49:53 AM 43.3544 -93.6158 North 433 498 26,000 -774 Descending Minneapolis Center
Sun 10:50:55 AM 43.5036 -93.5900 North 447 514 25,300 -732 Descending Minneapolis Center
Sun 10:51:56 AM 43.6192 -93.5692 North 452 520 24,500 -1,707 Descending Minneapolis Center
Sun 10:52:58 AM 43.7417 -93.5475 North 448 516 21,800 -2,613 Descending Minneapolis Center
Sun 10:54:00 AM 43.8594 -93.5283 North 432 497 19,100 -2,537 Descending Minneapolis Center
Sun 10:55:01 AM 43.9956 -93.5050 North 414 476 16,600 -2,780 Descending Minneapolis Center
Sun 10:56:03 AM 44.1031 -93.4850 North 396 456 13,400 -2,585 Descending Minneapolis Center
Sun 10:57:04 AM 44.2044 -93.4683 North 368 423 11,300 -1,171 Descending Minneapolis Center
Sun 10:58:06 AM 44.2878 -93.4269 20° North 319 367 11,000 -532 Descending Minneapolis Center
Sun 10:59:08 AM 44.3306 -93.3308 58° Northeast 301 346 10,200 -912 Descending Minneapolis Center
Sun 11:00:11 AM 44.4061 -93.2642 32° Northeast 288 331 9,100 -1,258 Descending Minneapolis Center
Sun 11:01:12 AM 44.4869 -93.2469 North 294 338 7,600 -1,366 Descending Minneapolis Center
Sun 11:02:14 AM 44.5469 -93.2339 North 280 322 6,300 -1,306 Descending Minneapolis Center
Sun 11:03:16 AM 44.6244 -93.2175 North 233 268 4,900 -1,024 Descending Minneapolis Center
Sun 11:04:17 AM 44.6806 -93.2050 North 208 239 4,200 -689 Descending Minneapolis Center

Login

Don't have an account? Register now (free) for customized features, flight alerts, and more!